This is the latest recevied weather packets stored in our database for station/object K5RWS. If no packets are shown the sender has not sent any weather packets the latest 10 day(s).
| Time | Temp. | Humidity | Pressure | Rain* | Wind** | Luminosity | Snow |
|---|---|---|---|---|---|---|---|
| 1778021096 | 15.56° C | 53% | 1012.5 hPa | 0 mm | - | 395 W/m² | - |
| 1778020793 | 15.56° C | 49% | 1012.5 hPa | 0 mm | - | 413 W/m² | - |
| 1778020490 | 16.11° C | 50% | 1012.6 hPa | 0 mm | - | 437 W/m² | - |
| 1778020186 | 16.67° C | 47% | 1012.7 hPa | 0 mm | - | 537 W/m² | - |
| 1778019883 | 16.67° C | 45% | 1012.8 hPa | 0 mm | - | 299 W/m² | - |
| 1778019579 | 17.22° C | 43% | 1012.6 hPa | 0 mm | - | 230 W/m² | - |
| 1778019276 | 17.22° C | 42% | 1012.7 hPa | 0 mm | - | 316 W/m² | - |
| 1778018973 | 17.78° C | 42% | 1012.7 hPa | 0 mm | - | 603 W/m² | - |
| 1778018670 | 17.22° C | 42% | 1012.6 hPa | 0 mm | - | 644 W/m² | - |
| 1778018368 | 16.67° C | 44% | 1012.6 hPa | 0 mm | - | 366 W/m² | - |
| 1778018066 | 17.22° C | 43% | 1012.9 hPa | 0 mm | - | 259 W/m² | - |
| 1778017763 | 16.67° C | 44% | 1013.1 hPa | 0 mm | - | 331 W/m² | - |
| 1778017461 | 16.67° C | 45% | 1012.8 hPa | 0 mm | - | 294 W/m² | - |
| 1778017158 | 16.67° C | 46% | 1013.2 hPa | 0 mm | - | 310 W/m² | - |
| 1778016856 | 16.67° C | 45% | 1013.2 hPa | 0 mm | - | 239 W/m² | - |
| 1778016552 | 16.11° C | 46% | 1013.1 hPa | 0 mm | - | 177 W/m² | - |
| 1778016248 | 16.11° C | 47% | 1013.3 hPa | 0 mm | - | 199 W/m² | - |
| 1778015945 | 16.11° C | 45% | 1013.4 hPa | 0 mm | - | 246 W/m² | - |
| 1778015643 | 16.11° C | 45% | 1013.1 hPa | 0 mm | - | 298 W/m² | - |
| 1778015339 | 16.11° C | 45% | 1013.3 hPa | 0 mm | - | 289 W/m² | - |
| 1778015036 | 16.11° C | 45% | 1013.3 hPa | 0 mm | - | 381 W/m² | - |
| 1778014733 | 17.22° C | 42% | 1013.2 hPa | 0 mm | - | 323 W/m² | - |
| 1778014431 | 17.22° C | 42% | 1013.4 hPa | 0 mm | - | 481 W/m² | - |
| 1778014128 | 16.67° C | 45% | 1013.4 hPa | 0 mm | - | 640 W/m² | - |
| 1778013825 | 17.22° C | 42% | 1013.6 hPa | 0 mm | - | 651 W/m² | - |
* Rain latest hour (hover to see other rain measurements)
** Current wind speed in m/s (hover to see current wind gust speed)